Diamantakis — SW5831 — position and weather

sailwx.info

Track history (hours):
 
Tides and Currents Weather Stations Pressure Air Temp Water Temp Dewpoint Dewpoint Depression Visibility Wind Speed Wind Dir Waves Ship Positions

Diamantakis

Last reported at 2017-Nov-07 10:01 UTC. Time now 2017-Nov-22 14:57 UTC.
Position N 40°57' E 025°05'.
Warning: this ship's position is 15 days out of date.

Length 16 m; draft 1.6 m.

Type: Fishing. MMSI: 239608000.

Date/timePositionNaut miles runAvg speedWind from/ knotsBaromVisibWave heightAir tempDewpointWater temp
2017-Nov-07 10:01N 40°57' E 025°05'0 8.4
2017-Nov-07 10:00N 40°57' E 025°05'4 8.3
2017-Nov-07 09:31N 40°54' E 025°00'4 7.8
2017-Nov-07 09:00N 40°52' E 024°56'1 1.9
2017-Nov-07 08:30N 40°52' E 024°55'2 4.0
2017-Nov-07 08:01N 40°53' E 024°57'1 1.9
2017-Nov-07 07:30N 40°53' E 024°56'1 2.4
2017-Nov-07 07:01N 40°52' E 024°55'1 2.1
2017-Nov-07 06:31N 40°51' E 024°54'1 1.8
2017-Nov-07 06:01N 40°51' E 024°53'1 2.6
2017-Nov-07 05:30N 40°50' E 024°52'1 1.1
2017-Nov-07 05:00N 40°49' E 024°51'4 7.3
2017-Nov-07 04:30N 40°51' E 024°55'4 7.7
2017-Nov-07 04:00N 40°53' E 024°60'4 8.0
2017-Nov-07 03:30N 40°56' E 025°04'  
2017-Nov-02 19:04N 40°58' E 025°07'1 8.3
2017-Nov-02 19:00N 40°58' E 025°06'4 8.3
2017-Nov-02 18:29N 40°55' E 025°02'4 8.4
2017-Nov-02 18:00N 40°53' E 024°57'4 8.2
2017-Nov-02 17:30N 40°52' E 024°52'4 8.5
2017-Nov-02 17:00N 40°50' E 024°47'4 8.2
2017-Nov-02 16:30N 40°49' E 024°42'4 8.5
2017-Nov-02 16:00N 40°48' E 024°36'4 8.7
2017-Nov-02 15:30N 40°45' E 024°31'4 8.6
2017-Nov-02 15:00N 40°43' E 024°27'4 8.6
2017-Nov-02 14:30N 40°40' E 024°23'4 8.7
2017-Nov-02 14:00N 40°37' E 024°18'5 8.2
2017-Nov-02 13:25N 40°34' E 024°13'  
Track history (hours):
 
Tides and Currents Weather Stations Pressure Air Temp Water Temp Dewpoint Dewpoint Depression Visibility Wind Speed Wind Dir Waves Ship Positions

Diamantakis

Last reported at 2017-Nov-07 10:01 UTC. Time now 2017-Nov-22 14:57 UTC.
Position N 40°57' E 025°05'.
Warning: this ship's position is 15 days out of date.

Length 16 m; draft 1.6 m.

Type: Fishing. MMSI: 239608000.

Date/timePositionNaut miles runAvg speedWind from/ knotsBaromVisibWave heightAir tempDewpointWater temp
2017-Nov-07 10:01N 40°57' E 025°05'0 8.4
2017-Nov-07 10:00N 40°57' E 025°05'4 8.3
2017-Nov-07 09:31N 40°54' E 025°00'4 7.8
2017-Nov-07 09:00N 40°52' E 024°56'1 1.9
2017-Nov-07 08:30N 40°52' E 024°55'2 4.0
2017-Nov-07 08:01N 40°53' E 024°57'1 1.9
2017-Nov-07 07:30N 40°53' E 024°56'1 2.4
2017-Nov-07 07:01N 40°52' E 024°55'1 2.1
2017-Nov-07 06:31N 40°51' E 024°54'1 1.8
2017-Nov-07 06:01N 40°51' E 024°53'1 2.6
2017-Nov-07 05:30N 40°50' E 024°52'1 1.1
2017-Nov-07 05:00N 40°49' E 024°51'4 7.3
2017-Nov-07 04:30N 40°51' E 024°55'4 7.7
2017-Nov-07 04:00N 40°53' E 024°60'4 8.0
2017-Nov-07 03:30N 40°56' E 025°04'  
2017-Nov-02 19:04N 40°58' E 025°07'1 8.3
2017-Nov-02 19:00N 40°58' E 025°06'4 8.3
2017-Nov-02 18:29N 40°55' E 025°02'4 8.4
2017-Nov-02 18:00N 40°53' E 024°57'4 8.2
2017-Nov-02 17:30N 40°52' E 024°52'4 8.5
2017-Nov-02 17:00N 40°50' E 024°47'4 8.2
2017-Nov-02 16:30N 40°49' E 024°42'4 8.5
2017-Nov-02 16:00N 40°48' E 024°36'4 8.7
2017-Nov-02 15:30N 40°45' E 024°31'4 8.6
2017-Nov-02 15:00N 40°43' E 024°27'4 8.6
2017-Nov-02 14:30N 40°40' E 024°23'4 8.7
2017-Nov-02 14:00N 40°37' E 024°18'5 8.2
2017-Nov-02 13:25N 40°34' E 024°13'  

Dump ship's entire track history